createdAt,value
2023-08-15T00:01:43.184Z,97364.22
2023-08-15T00:04:09.736Z,97362.09
2023-08-15T00:06:36.231Z,97372.44
2023-08-15T00:09:02.740Z,97372.44
2023-08-15T00:11:29.243Z,97345.09
2023-08-15T00:13:57.651Z,97336.19
2023-08-15T00:16:24.486Z,97334.38
2023-08-15T00:18:51.219Z,97340.16
2023-08-15T00:21:17.719Z,97359.38
2023-08-15T00:23:44.229Z,97380.09
2023-08-15T00:26:10.815Z,97352.84
2023-08-15T00:28:37.352Z,97337.81
2023-08-15T00:31:05.048Z,97318.72
2023-08-15T00:33:31.673Z,97309.63
2023-08-15T00:35:58.283Z,97293.00
2023-08-15T00:38:24.853Z,97280.28
2023-08-15T00:40:52.089Z,97273.50
2023-08-15T00:43:20.401Z,97273.31
2023-08-15T00:45:47.806Z,97252.75
2023-08-15T00:48:14.681Z,97265.31
2023-08-15T00:50:43.836Z,97275.72
2023-08-15T00:53:12.252Z,97278.78
2023-08-15T00:55:40.042Z,97281.03
2023-08-15T00:58:07.011Z,97279.53
2023-08-15T01:00:33.789Z,97284.41
2023-08-15T01:03:00.550Z,97280.03
2023-08-15T01:05:29.931Z,97282.97
2023-08-15T01:07:56.574Z,97268.75
2023-08-15T01:10:25.439Z,97256.94
2023-08-15T01:13:12.460Z,97267.94
2023-08-15T01:15:50.966Z,97272.28
2023-08-15T01:18:30.109Z,97292.50
2023-08-15T01:20:57.836Z,97296.81
2023-08-15T01:23:34.880Z,97284.41
2023-08-15T01:26:01.533Z,97273.94
2023-08-15T01:28:28.104Z,97257.56
2023-08-15T01:31:07.729Z,97254.50
2023-08-15T01:33:55.875Z,97244.38
2023-08-15T01:36:50.768Z,97257.97
2023-08-15T01:39:24.121Z,97261.22
2023-08-15T01:41:54.008Z,97270.50
2023-08-15T01:44:21.689Z,97279.72
2023-08-15T01:46:48.589Z,97242.41
2023-08-15T01:49:15.495Z,97250.25
2023-08-15T01:51:42.067Z,97248.13
2023-08-15T01:54:08.683Z,97247.44
2023-08-15T01:56:35.228Z,97243.47
2023-08-15T01:59:01.737Z,97247.31
2023-08-15T02:01:28.352Z,97252.78
2023-08-15T02:03:55.451Z,97262.84
2023-08-15T02:06:21.935Z,97256.94
2023-08-15T02:08:48.407Z,97246.66
2023-08-15T02:11:14.997Z,97240.75
2023-08-15T02:13:41.539Z,97222.00
2023-08-15T02:16:08.152Z,97209.84
2023-08-15T02:18:34.779Z,97219.53
2023-08-15T02:21:01.337Z,97208.94
2023-08-15T02:23:27.889Z,97212.69
2023-08-15T02:25:54.666Z,97209.56
2023-08-15T02:28:21.243Z,97216.53
2023-08-15T02:30:53.686Z,97211.97
2023-08-15T02:33:20.336Z,97197.28
2023-08-15T02:35:46.845Z,97199.28
2023-08-15T02:38:13.397Z,97194.56
2023-08-15T02:40:42.706Z,97206.06
2023-08-15T02:43:09.252Z,97195.84
2023-08-15T02:45:35.777Z,97200.84
2023-08-15T02:48:02.349Z,97203.22
2023-08-15T02:50:29.663Z,97207.34
2023-08-15T02:52:56.273Z,97213.16
2023-08-15T02:55:22.794Z,97214.78
2023-08-15T02:57:49.371Z,97218.34
2023-08-15T03:00:16.134Z,97220.78
2023-08-15T03:02:42.881Z,97231.75
2023-08-15T03:05:09.617Z,97232.53
2023-08-15T03:07:36.206Z,97237.41
2023-08-15T03:10:04.728Z,97222.22
2023-08-15T03:12:31.342Z,97234.72
2023-08-15T03:15:01.271Z,97238.13
2023-08-15T03:17:27.972Z,97247.47
2023-08-15T03:19:55.736Z,97227.00
2023-08-15T03:22:22.267Z,97220.91
2023-08-15T03:24:49.050Z,97225.56
2023-08-15T03:27:15.699Z,97238.00
2023-08-15T03:29:42.292Z,97225.41
2023-08-15T03:32:09.161Z,97219.59
2023-08-15T03:34:38.185Z,97226.41
2023-08-15T03:37:04.896Z,97224.13
2023-08-15T03:39:31.464Z,97216.41
2023-08-15T03:41:58.230Z,97224.56
2023-08-15T03:44:24.816Z,97219.91
2023-08-15T03:46:51.445Z,97221.66
2023-08-15T03:49:18.025Z,97224.41
2023-08-15T03:51:47.532Z,97232.94
2023-08-15T03:54:16.536Z,97254.06
2023-08-15T03:56:44.276Z,97258.94
2023-08-15T03:59:10.877Z,97242.78
2023-08-15T04:01:37.550Z,97237.09
2023-08-15T04:04:04.667Z,97244.34
2023-08-15T04:06:31.807Z,97252.16
2023-08-15T04:08:58.727Z,97269.38
2023-08-15T04:11:25.382Z,97302.47
2023-08-15T04:13:51.862Z,97291.75
2023-08-15T04:16:18.535Z,97318.59
2023-08-15T04:18:45.288Z,97339.81
2023-08-15T04:21:12.514Z,97323.06
2023-08-15T04:23:39.254Z,97347.16
2023-08-15T04:26:06.517Z,97366.75
2023-08-15T04:28:33.118Z,97350.78
2023-08-15T04:30:59.616Z,97342.06
2023-08-15T04:33:26.162Z,97341.66
2023-08-15T04:35:52.671Z,97342.38
2023-08-15T04:38:19.205Z,97325.78
2023-08-15T04:40:45.814Z,97312.69
2023-08-15T04:43:12.659Z,97314.50
2023-08-15T04:45:42.313Z,97306.91
2023-08-15T04:48:13.218Z,97325.50
2023-08-15T04:50:40.475Z,97321.50
2023-08-15T04:53:07.309Z,97314.16
2023-08-15T04:55:34.547Z,97308.09
2023-08-15T04:58:01.113Z,97300.03
2023-08-15T05:00:29.578Z,97288.41
2023-08-15T05:02:57.617Z,97283.59
2023-08-15T05:05:24.782Z,97286.91
2023-08-15T05:07:51.554Z,97281.97
2023-08-15T05:10:18.240Z,97289.31
2023-08-15T05:12:44.837Z,97280.16
2023-08-15T05:15:11.547Z,97277.34
2023-08-15T05:17:38.138Z,97283.53
2023-08-15T05:20:05.746Z,97282.72
2023-08-15T05:22:35.560Z,97281.09
2023-08-15T05:25:02.161Z,97280.91
2023-08-15T05:27:29.734Z,97281.69
2023-08-15T05:29:56.978Z,97286.09
2023-08-15T05:32:23.578Z,97293.25
2023-08-15T05:34:50.104Z,97285.53
2023-08-15T05:37:17.060Z,97293.44
2023-08-15T05:39:44.147Z,97297.50
2023-08-15T05:42:11.934Z,97304.50
2023-08-15T05:44:38.529Z,97297.72
2023-08-15T05:47:05.249Z,97300.94
2023-08-15T05:49:31.774Z,97299.63
2023-08-15T05:51:58.589Z,97297.53
2023-08-15T05:54:25.136Z,97302.06
2023-08-15T05:56:51.731Z,97306.91
2023-08-15T05:59:18.309Z,97307.09
2023-08-15T06:01:46.487Z,97313.91
2023-08-15T06:04:13.170Z,97311.78
2023-08-15T06:06:39.756Z,97320.72
2023-08-15T06:09:06.277Z,97317.19
2023-08-15T06:11:32.751Z,97317.53
2023-08-15T06:13:59.282Z,97313.00
2023-08-15T06:16:25.828Z,97316.91
2023-08-15T06:18:52.347Z,97317.72
2023-08-15T06:21:18.893Z,97314.34
2023-08-15T06:23:45.385Z,97314.03
2023-08-15T06:26:11.906Z,97322.25
2023-08-15T06:28:38.418Z,97322.91
2023-08-15T06:31:05.023Z,97329.78
2023-08-15T06:33:31.673Z,97334.47
2023-08-15T06:35:58.265Z,97332.69
2023-08-15T06:38:24.822Z,97331.09
2023-08-15T06:40:51.296Z,97330.13
2023-08-15T06:43:17.812Z,97333.69
2023-08-15T06:45:44.316Z,97345.28
2023-08-15T06:48:10.871Z,97348.31
2023-08-15T06:50:37.389Z,97344.81
2023-08-15T06:53:04.289Z,97338.94
2023-08-15T06:55:30.836Z,97349.78
2023-08-15T06:57:57.914Z,97347.19
2023-08-15T07:00:24.484Z,97354.00
2023-08-15T07:02:51.479Z,97353.47
2023-08-15T07:05:18.282Z,97368.78
2023-08-15T07:07:44.856Z,97374.50
2023-08-15T07:10:11.771Z,97378.00
2023-08-15T07:12:38.497Z,97372.78
2023-08-15T07:15:05.600Z,97381.81
2023-08-15T07:17:32.218Z,97377.41
2023-08-15T07:19:59.327Z,97379.63
2023-08-15T07:22:25.893Z,97385.63
2023-08-15T07:24:52.605Z,97382.72
2023-08-15T07:27:19.141Z,97382.38
2023-08-15T07:29:45.978Z,97378.53
2023-08-15T07:32:13.669Z,97379.69
2023-08-15T07:34:41.938Z,97369.94
2023-08-15T07:37:08.858Z,97377.56
2023-08-15T07:39:35.940Z,97383.66
2023-08-15T07:42:02.696Z,97382.47
2023-08-15T07:44:29.353Z,97376.28
2023-08-15T07:46:56.044Z,97373.66
2023-08-15T07:49:22.636Z,97360.78
2023-08-15T07:51:49.252Z,97365.38
2023-08-15T07:54:16.250Z,97380.31
2023-08-15T07:56:42.933Z,97383.09
2023-08-15T07:59:09.570Z,97378.91
2023-08-15T08:01:36.251Z,97368.53
2023-08-15T08:04:02.889Z,97370.16
2023-08-15T08:06:39.823Z,97366.97
2023-08-15T08:09:07.568Z,97369.81
2023-08-15T08:11:34.259Z,97361.53
2023-08-15T08:14:00.825Z,97355.09
2023-08-15T08:16:27.560Z,97352.38
2023-08-15T08:18:54.802Z,97354.56
2023-08-15T08:21:21.450Z,97356.47
2023-08-15T08:23:48.107Z,97355.38
2023-08-15T08:26:14.859Z,97358.03
2023-08-15T08:28:41.657Z,97356.94
2023-08-15T08:31:08.306Z,97361.47
2023-08-15T08:33:34.942Z,97355.16
2023-08-15T08:36:01.547Z,97354.47
2023-08-15T08:38:28.551Z,97356.38
2023-08-15T08:40:58.697Z,97358.63
2023-08-15T08:43:26.483Z,97361.63
2023-08-15T08:45:56.250Z,97369.75
2023-08-15T08:48:23.882Z,97365.84
2023-08-15T08:50:51.238Z,97362.88
2023-08-15T08:53:17.861Z,97363.84
2023-08-15T08:55:49.032Z,97370.84
2023-08-15T08:58:15.692Z,97372.25
2023-08-15T09:00:43.020Z,97371.38
2023-08-15T09:03:10.985Z,97379.03
2023-08-15T09:05:38.341Z,97370.28
2023-08-15T09:08:05.474Z,97378.25
2023-08-15T09:10:32.128Z,97379.03
2023-08-15T09:13:01.812Z,97383.44
2023-08-15T09:15:31.299Z,97383.56
2023-08-15T09:18:01.404Z,97380.25
2023-08-15T09:20:28.986Z,97386.91
2023-08-15T09:22:59.722Z,97393.47
2023-08-15T09:25:28.425Z,97387.13
2023-08-15T09:27:55.085Z,97393.81
2023-08-15T09:30:22.623Z,97389.44
2023-08-15T09:32:49.632Z,97394.53
2023-08-15T09:35:18.316Z,97385.88
2023-08-15T09:37:50.004Z,97390.34
2023-08-15T09:40:26.950Z,97386.88
2023-08-15T09:42:54.521Z,97381.72
2023-08-15T09:45:21.617Z,97381.38
2023-08-15T09:47:48.303Z,97379.38
2023-08-15T09:50:16.898Z,97395.53
2023-08-15T09:52:45.415Z,97395.59
2023-08-15T09:55:14.163Z,97393.72
2023-08-15T09:57:42.402Z,97392.91
2023-08-15T10:00:14.550Z,97395.41
2023-08-15T10:03:10.775Z,97397.03
2023-08-15T10:05:40.492Z,97395.41
2023-08-15T10:08:08.483Z,97393.38
2023-08-15T10:10:37.463Z,97404.13
2023-08-15T10:13:10.316Z,97399.19
2023-08-15T10:15:37.820Z,97407.47
2023-08-15T10:18:05.322Z,97411.19
2023-08-15T10:20:39.822Z,97408.50
2023-08-15T10:23:10.501Z,97423.75
2023-08-15T10:25:40.235Z,97418.50
2023-08-15T10:28:13.334Z,97418.41
2023-08-15T10:30:51.812Z,97411.88
2023-08-15T10:33:21.595Z,97423.25
2023-08-15T10:35:55.907Z,97427.22
2023-08-15T10:38:31.646Z,97430.75
2023-08-15T10:41:05.770Z,97424.81
2023-08-15T10:43:36.769Z,97433.00
2023-08-15T10:46:05.613Z,97431.75
2023-08-15T10:48:59.756Z,97439.00
2023-08-15T10:51:35.272Z,97433.81
2023-08-15T10:54:07.386Z,97431.16
2023-08-15T10:56:36.299Z,97426.00
2023-08-15T10:59:21.646Z,97425.66
2023-08-15T11:01:48.659Z,97424.31
2023-08-15T11:04:18.288Z,97420.97
2023-08-15T11:06:47.545Z,97423.19
2023-08-15T11:09:15.317Z,97428.22
2023-08-15T11:11:42.080Z,97429.31
2023-08-15T11:14:17.742Z,97430.16
2023-08-15T11:16:46.367Z,97426.47
2023-08-15T11:19:18.921Z,97429.09
2023-08-15T11:21:45.994Z,97430.00
2023-08-15T11:24:12.615Z,97427.03
2023-08-15T11:26:40.255Z,97435.75
2023-08-15T11:29:06.825Z,97430.41
2023-08-15T11:31:33.397Z,97426.09
2023-08-15T11:34:01.654Z,97420.03
2023-08-15T11:36:28.327Z,97433.44
2023-08-15T11:38:54.828Z,97431.06
2023-08-15T11:41:21.672Z,97435.28
2023-08-15T11:43:48.406Z,97433.56
2023-08-15T11:46:15.118Z,97435.78
2023-08-15T11:48:45.514Z,97429.19
2023-08-15T11:51:12.202Z,97423.25
2023-08-15T11:53:38.750Z,97428.78
2023-08-15T11:56:05.290Z,97435.41
2023-08-15T11:58:33.883Z,97439.56
2023-08-15T12:01:04.903Z,97438.84
2023-08-15T12:03:31.886Z,97430.16
2023-08-15T12:06:00.199Z,97429.25
2023-08-15T12:08:28.435Z,97426.06
2023-08-15T12:10:56.708Z,97430.00
2023-08-15T12:13:32.916Z,97431.03
2023-08-15T12:16:01.212Z,97428.19
2023-08-15T12:18:27.989Z,97426.63
2023-08-15T12:20:54.991Z,97429.13
2023-08-15T12:23:27.830Z,97430.72
2023-08-15T12:25:55.876Z,97420.13
2023-08-15T12:28:22.583Z,97438.34
2023-08-15T12:30:49.853Z,97427.13
2023-08-15T12:33:27.365Z,97438.16
2023-08-15T12:36:03.690Z,97437.13
2023-08-15T12:38:30.480Z,97435.44
2023-08-15T12:40:57.167Z,97431.34
2023-08-15T12:43:23.737Z,97428.69
2023-08-15T12:45:50.474Z,97427.78
2023-08-15T12:48:17.165Z,97433.34
2023-08-15T12:50:43.728Z,97429.00
2023-08-15T12:53:10.392Z,97422.97
2023-08-15T12:55:37.150Z,97423.94
2023-08-15T12:58:04.173Z,97426.16
2023-08-15T13:00:31.419Z,97434.25
2023-08-15T13:02:58.859Z,97424.03
2023-08-15T13:05:25.720Z,97423.31
2023-08-15T13:07:52.664Z,97424.34
2023-08-15T13:10:19.273Z,97419.13
2023-08-15T13:12:45.827Z,97412.94
2023-08-15T13:15:12.563Z,97423.63
2023-08-15T13:17:39.323Z,97420.19
2023-08-15T13:20:06.738Z,97410.84
2023-08-15T13:22:33.253Z,97424.16
2023-08-15T13:24:59.869Z,97424.31
2023-08-15T13:27:26.725Z,97423.34
2023-08-15T13:29:53.324Z,97414.47
2023-08-15T13:32:20.104Z,97407.44
2023-08-15T13:34:47.001Z,97403.06
2023-08-15T13:37:13.562Z,97411.41
2023-08-15T13:39:40.302Z,97415.59
2023-08-15T13:42:09.630Z,97409.81
2023-08-15T13:44:40.218Z,97395.50
2023-08-15T13:47:06.861Z,97406.59
2023-08-15T13:49:33.532Z,97406.78
2023-08-15T13:52:00.196Z,97400.84
2023-08-15T13:54:27.088Z,97403.41
2023-08-15T13:56:55.510Z,97389.94
2023-08-15T13:59:22.661Z,97385.44
2023-08-15T14:01:49.365Z,97388.00
2023-08-15T14:04:16.382Z,97387.34
2023-08-15T14:06:43.047Z,97381.31
2023-08-15T14:09:09.618Z,97383.88
2023-08-15T14:11:36.478Z,97385.44
2023-08-15T14:14:03.034Z,97382.97
2023-08-15T14:16:29.675Z,97372.38
2023-08-15T14:18:56.198Z,97370.28
2023-08-15T14:21:22.700Z,97381.50
2023-08-15T14:23:49.307Z,97368.97
2023-08-15T14:26:15.813Z,97376.03
2023-08-15T14:28:42.355Z,97382.44
2023-08-15T14:31:09.063Z,97376.22
2023-08-15T14:33:35.727Z,97377.31
2023-08-15T14:36:02.292Z,97374.09
2023-08-15T14:38:28.855Z,97377.00
2023-08-15T14:40:55.459Z,97368.28
2023-08-15T14:43:22.040Z,97370.47
2023-08-15T14:45:48.958Z,97373.69
2023-08-15T14:48:15.622Z,97378.56
2023-08-15T14:50:42.551Z,97372.84
2023-08-15T14:53:09.249Z,97369.75
2023-08-15T14:55:35.751Z,97361.56
2023-08-15T14:58:03.003Z,97361.56
2023-08-15T15:00:29.575Z,97355.91
2023-08-15T15:02:56.292Z,97353.66
2023-08-15T15:05:23.752Z,97357.75
2023-08-15T15:07:50.901Z,97365.03
2023-08-15T15:10:17.753Z,97361.63
2023-08-15T15:12:45.796Z,97358.94
2023-08-15T15:15:12.399Z,97368.63
2023-08-15T15:17:39.061Z,97351.38
2023-08-15T15:20:07.475Z,97354.53
2023-08-15T15:22:34.140Z,97360.91
2023-08-15T15:25:00.774Z,97361.75
2023-08-15T15:27:27.336Z,97359.19
2023-08-15T15:29:53.977Z,97358.94
2023-08-15T15:32:20.655Z,97360.19
2023-08-15T15:34:47.323Z,97367.78
2023-08-15T15:37:14.156Z,97360.53
2023-08-15T15:39:40.740Z,97371.38
2023-08-15T15:42:07.340Z,97371.75
2023-08-15T15:44:35.450Z,97373.78
2023-08-15T15:47:02.670Z,97377.81
2023-08-15T15:49:29.315Z,97372.97
2023-08-15T15:51:55.880Z,97370.19
2023-08-15T15:54:22.469Z,97369.34
2023-08-15T15:56:49.018Z,97373.78
2023-08-15T15:59:15.662Z,97377.00
2023-08-15T16:01:42.280Z,97373.31
2023-08-15T16:04:09.041Z,97379.84
2023-08-15T16:06:35.610Z,97373.97
2023-08-15T16:09:02.192Z,97372.09
2023-08-15T16:11:28.814Z,97376.16
2023-08-15T16:13:55.362Z,97372.13
2023-08-15T16:16:22.225Z,97367.88
2023-08-15T16:18:48.884Z,97371.53
2023-08-15T16:21:18.110Z,97369.81
2023-08-15T16:23:45.926Z,97362.63
2023-08-15T16:26:12.481Z,97367.81
2023-08-15T16:28:41.132Z,97365.16
2023-08-15T16:31:08.392Z,97362.94
2023-08-15T16:33:35.009Z,97359.34
2023-08-15T16:36:01.546Z,97360.00
2023-08-15T16:38:28.898Z,97377.69
2023-08-15T16:40:55.744Z,97373.59
2023-08-15T16:43:22.338Z,97375.03
2023-08-15T16:45:48.985Z,97373.84
2023-08-15T16:48:15.805Z,97367.09
2023-08-15T16:50:43.348Z,97375.75
2023-08-15T16:53:10.687Z,97375.75
2023-08-15T16:55:37.474Z,97379.22
2023-08-15T16:58:04.299Z,97382.38
2023-08-15T17:00:31.017Z,97380.06
2023-08-15T17:02:58.112Z,97385.47
2023-08-15T17:05:25.204Z,97381.59
2023-08-15T17:07:51.935Z,97382.03
2023-08-15T17:10:18.956Z,97387.25
2023-08-15T17:12:47.437Z,97389.59
2023-08-15T17:15:16.425Z,97386.69
2023-08-15T17:17:43.459Z,97396.75
2023-08-15T17:20:10.966Z,97397.97
2023-08-15T17:22:37.663Z,97405.72
2023-08-15T17:25:05.239Z,97411.53
2023-08-15T17:27:31.872Z,97405.34
2023-08-15T17:29:58.478Z,97419.66
2023-08-15T17:32:26.207Z,97415.25
2023-08-15T17:34:52.899Z,97424.19
2023-08-15T17:37:19.387Z,97425.81
2023-08-15T17:39:45.874Z,97427.31
2023-08-15T17:42:12.404Z,97420.63
2023-08-15T17:44:38.918Z,97425.00
2023-08-15T17:47:05.900Z,97435.06
2023-08-15T17:49:32.713Z,97434.19
2023-08-15T17:51:59.303Z,97428.25
2023-08-15T17:54:25.957Z,97438.09
2023-08-15T17:56:52.839Z,97440.75
2023-08-15T17:59:19.384Z,97441.09
2023-08-15T18:01:46.018Z,97438.69
2023-08-15T18:04:13.218Z,97440.44
2023-08-15T18:06:39.794Z,97451.28
2023-08-15T18:09:06.395Z,97445.97
2023-08-15T18:11:33.146Z,97454.53
2023-08-15T18:14:01.598Z,97456.72
2023-08-15T18:16:29.284Z,97461.25
2023-08-15T18:18:56.235Z,97468.31
2023-08-15T18:21:22.760Z,97460.56
2023-08-15T18:23:49.311Z,97462.34
2023-08-15T18:26:15.915Z,97467.19
2023-08-15T18:28:42.801Z,97474.47
2023-08-15T18:31:09.264Z,97471.50
2023-08-15T18:33:35.896Z,97467.50
2023-08-15T18:36:02.472Z,97469.41
2023-08-15T18:38:30.940Z,97479.66
2023-08-15T18:40:57.543Z,97479.03
2023-08-15T18:43:24.180Z,97486.53
2023-08-15T18:45:50.955Z,97481.84
2023-08-15T18:48:19.399Z,97489.56
2023-08-15T18:50:46.117Z,97483.41
2023-08-15T18:53:12.675Z,97488.16
2023-08-15T18:55:39.794Z,97493.31
2023-08-15T18:58:07.709Z,97491.88
2023-08-15T19:00:34.430Z,97495.78
2023-08-15T19:03:01.187Z,97502.25
2023-08-15T19:05:27.934Z,97507.03
2023-08-15T19:07:54.455Z,97510.44
2023-08-15T19:10:21.826Z,97519.94
2023-08-15T19:12:48.415Z,97516.69
2023-08-15T19:15:19.258Z,97527.66
2023-08-15T19:17:49.476Z,97529.91
2023-08-15T19:20:21.298Z,97521.66
2023-08-15T19:22:48.155Z,97525.47
2023-08-15T19:25:15.356Z,97529.13
2023-08-15T19:27:41.873Z,97538.78
2023-08-15T19:30:08.959Z,97539.16
2023-08-15T19:32:35.551Z,97545.59
2023-08-15T19:35:02.885Z,97542.34
2023-08-15T19:37:37.321Z,97538.47
2023-08-15T19:40:09.522Z,97550.56
2023-08-15T19:42:44.033Z,97545.88
2023-08-15T19:45:11.777Z,97542.50
2023-08-15T19:47:39.096Z,97546.50
2023-08-15T19:50:08.248Z,97550.56
2023-08-15T19:52:35.673Z,97557.50
2023-08-15T19:55:04.338Z,97560.28
2023-08-15T19:57:31.325Z,97554.16
2023-08-15T19:59:57.912Z,97546.53
2023-08-15T20:02:25.278Z,97552.56
2023-08-15T20:04:52.179Z,97552.16
2023-08-15T20:07:19.165Z,97553.50
2023-08-15T20:09:55.208Z,97554.13
2023-08-15T20:12:26.251Z,97543.94
2023-08-15T20:14:52.775Z,97541.03
2023-08-15T20:17:19.392Z,97542.16
2023-08-15T20:19:45.932Z,97540.22
2023-08-15T20:22:12.423Z,97543.88
2023-08-15T20:24:39.331Z,97540.72
2023-08-15T20:27:06.207Z,97533.63
2023-08-15T20:29:35.941Z,97540.16
2023-08-15T20:32:02.703Z,97537.53
2023-08-15T20:34:29.490Z,97545.94
2023-08-15T20:36:56.070Z,97542.41
2023-08-15T20:39:22.685Z,97544.03
2023-08-15T20:41:49.172Z,97547.41
2023-08-15T20:44:15.692Z,97545.28
2023-08-15T20:46:42.249Z,97550.69
2023-08-15T20:49:09.601Z,97541.53
2023-08-15T20:51:36.369Z,97540.41
2023-08-15T20:54:03.237Z,97542.56
2023-08-15T20:56:29.713Z,97536.56
2023-08-15T20:58:56.604Z,97552.72
2023-08-15T21:01:23.490Z,97556.97
2023-08-15T21:03:50.669Z,97558.63
2023-08-15T21:06:17.332Z,97564.28
2023-08-15T21:08:43.835Z,97561.97
2023-08-15T21:11:10.451Z,97560.91
2023-08-15T21:13:37.022Z,97559.94
2023-08-15T21:16:03.685Z,97565.63
2023-08-15T21:18:30.419Z,97570.91
2023-08-15T21:20:57.001Z,97567.44
2023-08-15T21:23:23.622Z,97571.56
2023-08-15T21:25:50.173Z,97577.38
2023-08-15T21:28:17.194Z,97566.06
2023-08-15T21:30:44.377Z,97571.59
2023-08-15T21:33:11.250Z,97573.47
2023-08-15T21:35:37.848Z,97573.66
2023-08-15T21:38:04.627Z,97572.25
2023-08-15T21:40:31.195Z,97578.66
2023-08-15T21:42:57.790Z,97576.00
2023-08-15T21:45:24.300Z,97580.88
2023-08-15T21:47:50.827Z,97577.34
2023-08-15T21:50:17.626Z,97584.19
2023-08-15T21:52:44.173Z,97575.03
2023-08-15T21:55:10.773Z,97579.97
2023-08-15T21:57:37.323Z,97588.44
2023-08-15T22:00:04.418Z,97591.69
2023-08-15T22:02:39.198Z,97597.59
2023-08-15T22:05:05.929Z,97596.22
2023-08-15T22:07:32.461Z,97592.66
2023-08-15T22:09:59.144Z,97601.00
2023-08-15T22:12:25.735Z,97599.97
2023-08-15T22:14:52.286Z,97600.19
2023-08-15T22:17:23.120Z,97597.81
2023-08-15T22:19:55.085Z,97600.06
2023-08-15T22:22:21.621Z,97597.16
2023-08-15T22:24:57.418Z,97606.72
2023-08-15T22:27:31.403Z,97601.47
2023-08-15T22:29:57.967Z,97605.56
2023-08-15T22:32:24.467Z,97601.59
2023-08-15T22:34:50.953Z,97599.16
2023-08-15T22:37:17.582Z,97592.56
2023-08-15T22:39:44.124Z,97586.56
2023-08-15T22:42:10.668Z,97588.22
2023-08-15T22:44:37.188Z,97589.03
2023-08-15T22:47:03.825Z,97582.75
2023-08-15T22:49:30.358Z,97588.63
2023-08-15T22:51:56.921Z,97589.50
2023-08-15T22:54:23.471Z,97582.97
2023-08-15T22:56:49.942Z,97584.03
2023-08-15T22:59:16.504Z,97587.91
2023-08-15T23:01:43.097Z,97590.09
2023-08-15T23:04:09.685Z,97594.41
2023-08-15T23:06:36.223Z,97594.91
2023-08-15T23:09:02.817Z,97589.72
2023-08-15T23:11:30.846Z,97590.75
2023-08-15T23:13:57.445Z,97586.75
2023-08-15T23:16:24.196Z,97581.53
2023-08-15T23:18:50.793Z,97578.50
2023-08-15T23:21:17.378Z,97571.75
2023-08-15T23:23:44.222Z,97566.25
2023-08-15T23:26:10.993Z,97554.66
2023-08-15T23:28:37.542Z,97558.88
2023-08-15T23:31:04.163Z,97560.09
2023-08-15T23:33:30.695Z,97564.78
2023-08-15T23:35:57.184Z,97561.84
2023-08-15T23:38:23.774Z,97553.53
2023-08-15T23:40:50.334Z,97551.31
2023-08-15T23:43:17.096Z,97549.38
2023-08-15T23:45:45.972Z,97543.38
2023-08-15T23:48:13.335Z,97556.88
2023-08-15T23:50:39.845Z,97561.59
2023-08-15T23:53:06.458Z,97565.22
2023-08-15T23:55:33.672Z,97572.63
2023-08-15T23:58:00.207Z,97568.47
